createdAt,value
2022-09-25T00:01:01.617Z,10.20
2022-09-25T00:03:29.693Z,10.20
2022-09-25T00:06:05.418Z,10.20
2022-09-25T00:08:33.296Z,10.10
2022-09-25T00:11:00.179Z,10.10
2022-09-25T00:13:26.970Z,10.10
2022-09-25T00:15:56.009Z,10.00
2022-09-25T00:18:43.103Z,10.00
2022-09-25T00:21:12.847Z,9.90
2022-09-25T00:23:41.284Z,9.90
2022-09-25T00:26:09.169Z,9.80
2022-09-25T00:28:37.604Z,9.80
2022-09-25T00:31:06.150Z,9.80
2022-09-25T00:33:34.464Z,9.80
2022-09-25T00:36:07.041Z,9.80
2022-09-25T00:38:35.797Z,9.70
2022-09-25T00:41:04.493Z,9.70
2022-09-25T00:43:40.750Z,9.70
2022-09-25T00:46:30.436Z,9.70
2022-09-25T00:49:04.903Z,9.70
2022-09-25T00:51:41.484Z,9.70
2022-09-25T00:54:17.478Z,9.60
2022-09-25T00:56:47.657Z,9.60
2022-09-25T00:59:19.848Z,9.60
2022-09-25T01:01:47.211Z,9.60
2022-09-25T01:04:14.668Z,9.60
2022-09-25T01:06:41.993Z,9.60
2022-09-25T01:09:09.070Z,9.60
2022-09-25T01:11:36.051Z,9.60
2022-09-25T01:14:04.644Z,9.60
2022-09-25T01:16:43.475Z,9.60
2022-09-25T01:19:10.300Z,9.60
2022-09-25T01:21:44.473Z,9.60
2022-09-25T01:24:49.130Z,9.60
2022-09-25T01:27:48.096Z,9.60
2022-09-25T01:30:18.784Z,9.60
2022-09-25T01:32:56.342Z,9.60
2022-09-25T01:35:52.111Z,9.50
2022-09-25T01:38:36.561Z,9.60
2022-09-25T01:41:07.412Z,9.60
2022-09-25T01:43:34.180Z,9.60
2022-09-25T01:46:02.735Z,9.60
2022-09-25T01:48:32.679Z,9.60
2022-09-25T01:51:32.263Z,9.60
2022-09-25T01:54:05.267Z,9.60
2022-09-25T01:56:38.136Z,9.70
2022-09-25T01:59:16.768Z,9.70
2022-09-25T02:01:46.177Z,9.70
2022-09-25T02:04:18.761Z,9.70
2022-09-25T02:06:49.287Z,9.70
2022-09-25T02:09:24.824Z,9.70
2022-09-25T02:11:57.741Z,9.70
2022-09-25T02:14:34.679Z,9.70
2022-09-25T02:17:06.359Z,9.80
2022-09-25T02:19:52.122Z,9.80
2022-09-25T02:22:24.619Z,9.70
2022-09-25T02:25:00.564Z,9.70
2022-09-25T02:27:29.188Z,9.70
2022-09-25T02:29:58.312Z,9.70
2022-09-25T02:32:30.795Z,9.70
2022-09-25T02:34:59.723Z,9.70
2022-09-25T02:37:27.287Z,9.70
2022-09-25T02:40:00.625Z,9.70
2022-09-25T02:42:50.202Z,9.70
2022-09-25T02:45:42.217Z,9.70
2022-09-25T02:48:30.415Z,9.70
2022-09-25T02:51:02.783Z,9.70
2022-09-25T02:53:48.094Z,9.70
2022-09-25T02:56:25.728Z,9.70
2022-09-25T02:58:59.083Z,9.70
2022-09-25T03:01:31.248Z,9.70
2022-09-25T03:04:00.415Z,9.60
2022-09-25T03:06:28.191Z,9.70
2022-09-25T03:08:56.803Z,9.60
2022-09-25T03:11:26.928Z,9.70
2022-09-25T03:13:58.143Z,9.70
2022-09-25T03:16:46.864Z,9.70
2022-09-25T03:19:14.416Z,9.60
2022-09-25T03:21:41.172Z,9.60
2022-09-25T03:24:08.138Z,9.60
2022-09-25T03:26:35.068Z,9.60
2022-09-25T03:29:02.565Z,9.60
2022-09-25T03:31:30.695Z,9.50
2022-09-25T03:33:58.211Z,9.50
2022-09-25T03:36:27.267Z,9.50
2022-09-25T03:39:01.874Z,9.50
2022-09-25T03:41:33.588Z,9.50
2022-09-25T03:44:01.157Z,9.50
2022-09-25T03:46:30.439Z,9.40
2022-09-25T03:48:58.502Z,9.50
2022-09-25T03:51:27.132Z,9.50
2022-09-25T03:53:54.661Z,9.40
2022-09-25T03:56:24.527Z,9.40
2022-09-25T03:58:54.203Z,9.40
2022-09-25T04:01:21.989Z,9.40
2022-09-25T04:03:49.603Z,9.40
2022-09-25T04:06:19.028Z,9.40
2022-09-25T04:08:47.722Z,9.40
2022-09-25T04:11:19.196Z,9.30
2022-09-25T04:13:46.716Z,9.30
2022-09-25T04:16:14.731Z,9.20
2022-09-25T04:18:42.866Z,9.20
2022-09-25T04:21:12.656Z,9.20
2022-09-25T04:23:39.987Z,9.20
2022-09-25T04:26:08.660Z,9.10
2022-09-25T04:28:35.880Z,9.10
2022-09-25T04:31:03.843Z,9.10
2022-09-25T04:33:47.581Z,9.10
2022-09-25T04:36:19.050Z,9.00
2022-09-25T04:38:47.989Z,9.00
2022-09-25T04:41:17.621Z,9.00
2022-09-25T04:43:44.593Z,8.90
2022-09-25T04:46:18.276Z,8.90
2022-09-25T04:48:48.523Z,8.90
2022-09-25T04:51:15.437Z,8.90
2022-09-25T04:53:42.847Z,8.90
2022-09-25T04:56:15.477Z,8.80
2022-09-25T04:58:48.735Z,8.90
2022-09-25T05:01:17.737Z,8.90
2022-09-25T05:03:50.113Z,8.90
2022-09-25T05:06:17.394Z,8.90
2022-09-25T05:08:44.306Z,8.90
2022-09-25T05:11:11.460Z,8.90
2022-09-25T05:13:38.585Z,8.90
2022-09-25T05:16:05.696Z,8.90
2022-09-25T05:18:32.828Z,9.00
2022-09-25T05:21:06.693Z,9.00
2022-09-25T05:23:33.482Z,9.00
2022-09-25T05:26:03.383Z,9.00
2022-09-25T05:28:31.707Z,9.10
2022-09-25T05:31:02.612Z,9.10
2022-09-25T05:33:30.996Z,9.20
2022-09-25T05:36:05.408Z,9.20
2022-09-25T05:38:34.265Z,9.20
2022-09-25T05:41:04.539Z,9.30
2022-09-25T05:43:32.472Z,9.30
2022-09-25T05:46:00.500Z,9.40
2022-09-25T05:48:28.186Z,9.40
2022-09-25T05:50:56.497Z,9.40
2022-09-25T05:53:24.552Z,9.50
2022-09-25T05:55:55.654Z,9.50
2022-09-25T05:58:22.652Z,9.50
2022-09-25T06:00:50.497Z,9.60
2022-09-25T06:03:18.130Z,9.60
2022-09-25T06:05:46.318Z,9.70
2022-09-25T06:08:14.406Z,9.70
2022-09-25T06:10:42.117Z,9.80
2022-09-25T06:13:09.019Z,9.80
2022-09-25T06:15:42.039Z,9.80
2022-09-25T06:18:09.487Z,9.90
2022-09-25T06:20:36.618Z,9.90
2022-09-25T06:23:03.575Z,9.90
2022-09-25T06:25:36.611Z,10.00
2022-09-25T06:28:04.508Z,10.00
2022-09-25T06:30:36.814Z,10.00
2022-09-25T06:33:12.694Z,10.00
2022-09-25T06:35:44.300Z,10.00
2022-09-25T06:38:12.368Z,10.00
2022-09-25T06:40:41.396Z,10.10
2022-09-25T06:43:13.555Z,10.10
2022-09-25T06:45:41.320Z,10.10
2022-09-25T06:48:16.327Z,10.20
2022-09-25T06:50:46.134Z,10.30
2022-09-25T06:53:15.310Z,10.30
2022-09-25T06:55:45.273Z,10.40
2022-09-25T06:58:15.596Z,10.40
2022-09-25T07:00:47.225Z,10.50
2022-09-25T07:03:33.129Z,10.50
2022-09-25T07:06:00.990Z,10.60
2022-09-25T07:08:28.416Z,10.60
2022-09-25T07:10:57.167Z,10.60
2022-09-25T07:13:27.453Z,10.70
2022-09-25T07:15:59.742Z,10.70
2022-09-25T07:18:28.525Z,10.70
2022-09-25T07:21:11.544Z,10.70
2022-09-25T07:23:38.924Z,10.80
2022-09-25T07:26:07.353Z,10.80
2022-09-25T07:28:34.321Z,10.80
2022-09-25T07:31:15.355Z,10.90
2022-09-25T07:33:43.042Z,10.90
2022-09-25T07:36:10.196Z,11.00
2022-09-25T07:38:37.132Z,11.00
2022-09-25T07:41:10.318Z,11.10
2022-09-25T07:43:40.040Z,11.20
2022-09-25T07:46:07.163Z,11.20
2022-09-25T07:48:34.268Z,11.30
2022-09-25T07:51:02.747Z,11.30
2022-09-25T07:53:30.089Z,11.30
2022-09-25T07:56:05.096Z,11.40
2022-09-25T07:58:35.563Z,11.40
2022-09-25T08:01:05.236Z,11.50
2022-09-25T08:03:32.627Z,11.60
2022-09-25T08:06:01.586Z,11.70
2022-09-25T08:08:29.383Z,11.80
2022-09-25T08:11:08.121Z,11.90
2022-09-25T08:13:35.667Z,12.10
2022-09-25T08:16:03.779Z,12.20
2022-09-25T08:18:31.288Z,12.30
2022-09-25T08:21:05.021Z,12.40
2022-09-25T08:23:32.489Z,12.50
2022-09-25T08:26:00.087Z,12.50
2022-09-25T08:28:27.268Z,12.50
2022-09-25T08:30:54.576Z,12.50
2022-09-25T08:33:21.543Z,12.50
2022-09-25T08:36:02.641Z,12.50
2022-09-25T08:38:32.759Z,12.50
2022-09-25T08:41:08.744Z,12.50
2022-09-25T08:43:42.298Z,12.50
2022-09-25T08:46:56.583Z,12.50
2022-09-25T08:49:26.866Z,12.50
2022-09-25T08:51:58.765Z,12.50
2022-09-25T08:54:28.461Z,12.60
2022-09-25T08:56:59.315Z,12.60
2022-09-25T08:59:31.788Z,12.70
2022-09-25T09:02:20.457Z,12.70
2022-09-25T09:04:58.670Z,12.60
2022-09-25T09:07:37.755Z,12.70
2022-09-25T09:10:40.455Z,12.70
2022-09-25T09:13:32.581Z,12.70
2022-09-25T09:16:05.838Z,12.70
2022-09-25T09:18:38.688Z,12.70
2022-09-25T09:21:11.770Z,12.70
2022-09-25T09:24:01.241Z,12.70
2022-09-25T09:26:37.389Z,12.70
2022-09-25T09:29:31.381Z,12.70
2022-09-25T09:32:19.710Z,12.70
2022-09-25T09:35:06.384Z,12.70
2022-09-25T09:37:50.072Z,12.80
2022-09-25T09:40:54.006Z,12.90
2022-09-25T09:43:59.946Z,12.90
2022-09-25T09:46:30.013Z,13.00
2022-09-25T09:49:24.667Z,13.10
2022-09-25T09:51:58.467Z,13.10
2022-09-25T09:55:06.995Z,13.20
2022-09-25T09:57:50.294Z,13.20
2022-09-25T10:00:20.029Z,13.20
2022-09-25T10:02:59.418Z,13.30
2022-09-25T10:05:37.978Z,13.30
2022-09-25T10:08:04.948Z,13.30
2022-09-25T10:10:41.739Z,13.30
2022-09-25T10:13:20.245Z,13.30
2022-09-25T10:16:01.100Z,13.40
2022-09-25T10:18:40.937Z,13.50
2022-09-25T10:21:08.606Z,13.50
2022-09-25T10:23:50.448Z,13.60
2022-09-25T10:26:31.966Z,13.60
2022-09-25T10:29:01.151Z,13.70
2022-09-25T10:31:37.137Z,13.80
2022-09-25T10:34:18.423Z,13.90
2022-09-25T10:36:47.845Z,14.00
2022-09-25T10:39:46.233Z,14.10
2022-09-25T10:42:39.863Z,14.20
2022-09-25T10:45:28.733Z,14.20
2022-09-25T10:48:14.218Z,14.20
2022-09-25T10:50:42.200Z,14.20
2022-09-25T10:53:30.417Z,14.20
2022-09-25T10:56:04.941Z,14.20
2022-09-25T10:58:40.297Z,14.20
2022-09-25T11:01:13.419Z,14.20
2022-09-25T11:03:54.066Z,14.30
2022-09-25T11:06:28.383Z,14.30
2022-09-25T11:09:14.753Z,14.30
2022-09-25T11:11:44.253Z,14.40
2022-09-25T11:14:22.621Z,14.40
2022-09-25T11:16:52.547Z,14.40
2022-09-25T11:19:30.595Z,14.50
2022-09-25T11:22:18.280Z,14.40
2022-09-25T11:25:02.578Z,14.50
2022-09-25T11:28:07.033Z,14.50
2022-09-25T11:30:43.434Z,14.50
2022-09-25T11:33:24.568Z,14.60
2022-09-25T11:36:16.612Z,14.60
2022-09-25T11:39:20.406Z,14.60
2022-09-25T11:42:06.550Z,14.70
2022-09-25T11:45:08.363Z,14.70
2022-09-25T11:47:54.616Z,14.60
2022-09-25T11:50:33.895Z,14.60
2022-09-25T11:53:31.858Z,14.60
2022-09-25T11:56:37.398Z,14.50
2022-09-25T11:59:14.816Z,14.40
2022-09-25T12:02:10.919Z,14.40
2022-09-25T12:04:55.741Z,14.30
2022-09-25T12:07:40.880Z,14.20
2022-09-25T12:10:19.921Z,14.10
2022-09-25T12:12:59.328Z,13.90
2022-09-25T12:15:42.341Z,13.90
2022-09-25T12:18:34.171Z,13.80
2022-09-25T12:21:10.352Z,13.60
2022-09-25T12:24:03.882Z,13.50
2022-09-25T12:26:51.759Z,13.40
2022-09-25T12:29:35.353Z,13.20
2022-09-25T12:32:38.190Z,13.10
2022-09-25T12:35:35.941Z,13.00
2022-09-25T12:38:11.916Z,12.90
2022-09-25T12:40:55.685Z,12.80
2022-09-25T12:43:36.621Z,12.80
2022-09-25T12:46:16.059Z,12.70
2022-09-25T12:49:13.826Z,12.70
2022-09-25T12:51:50.004Z,12.70
2022-09-25T12:54:38.469Z,12.70
2022-09-25T12:57:29.244Z,12.70
2022-09-25T13:00:03.760Z,12.70
2022-09-25T13:02:44.838Z,12.60
2022-09-25T13:05:26.230Z,12.60
2022-09-25T13:08:21.953Z,12.60
2022-09-25T13:11:05.033Z,12.60
2022-09-25T13:13:40.128Z,12.60
2022-09-25T13:16:07.360Z,12.60
2022-09-25T13:18:36.364Z,12.60
2022-09-25T13:21:23.350Z,12.50
2022-09-25T13:23:53.261Z,12.50
2022-09-25T13:26:27.308Z,12.40
2022-09-25T13:29:14.628Z,12.40
2022-09-25T13:31:44.447Z,12.40
2022-09-25T13:34:17.623Z,12.40
2022-09-25T13:36:52.852Z,12.40
2022-09-25T13:39:43.880Z,12.40
2022-09-25T13:42:16.347Z,12.40
2022-09-25T13:44:43.620Z,12.40
2022-09-25T13:47:25.695Z,12.30
2022-09-25T13:50:10.980Z,12.30
2022-09-25T13:52:47.039Z,12.30
2022-09-25T13:55:13.885Z,12.30
2022-09-25T13:57:58.811Z,12.30
2022-09-25T14:00:37.888Z,12.30
2022-09-25T14:03:05.565Z,12.30
2022-09-25T14:05:36.100Z,12.20
2022-09-25T14:11:10.715Z,12.30
2022-09-25T14:13:46.957Z,12.20
2022-09-25T14:16:35.516Z,12.20
2022-09-25T14:19:05.162Z,12.20
2022-09-25T14:21:52.918Z,12.20
2022-09-25T14:24:29.106Z,12.20
2022-09-25T14:26:58.197Z,12.20
2022-09-25T14:29:33.855Z,12.30
2022-09-25T14:32:36.267Z,12.40
2022-09-25T14:35:09.813Z,12.40
2022-09-25T14:38:07.471Z,12.50
2022-09-25T14:40:38.144Z,12.60
2022-09-25T14:43:14.457Z,12.70
2022-09-25T14:45:55.174Z,12.70
2022-09-25T14:48:31.288Z,12.80
2022-09-25T14:51:04.009Z,12.80
2022-09-25T14:53:35.708Z,12.80
2022-09-25T14:56:03.716Z,12.80
2022-09-25T14:58:33.091Z,12.70
2022-09-25T15:01:13.849Z,12.70
2022-09-25T15:03:44.201Z,12.60
2022-09-25T15:06:15.964Z,12.60
2022-09-25T15:08:43.436Z,12.60
2022-09-25T15:11:16.189Z,12.50
2022-09-25T15:13:44.024Z,12.50
2022-09-25T15:16:38.910Z,12.50
2022-09-25T15:19:18.089Z,12.50
2022-09-25T15:21:45.346Z,12.50
2022-09-25T15:24:20.999Z,12.50
2022-09-25T15:26:56.148Z,12.40
2022-09-25T15:29:25.541Z,12.40
2022-09-25T15:31:52.798Z,12.40
2022-09-25T15:34:27.402Z,12.40
2022-09-25T15:36:54.566Z,12.30
2022-09-25T15:39:24.577Z,12.30
2022-09-25T15:41:52.548Z,12.20
2022-09-25T15:44:25.198Z,12.20
2022-09-25T15:46:54.656Z,12.10
2022-09-25T15:49:31.193Z,12.10
2022-09-25T15:52:04.950Z,12.10
2022-09-25T15:54:46.204Z,12.00
2022-09-25T15:57:24.811Z,12.00
2022-09-25T16:00:15.932Z,11.90
2022-09-25T16:03:19.217Z,11.90
2022-09-25T16:05:49.198Z,11.80
2022-09-25T16:08:34.744Z,11.80
2022-09-25T16:11:24.408Z,11.70
2022-09-25T16:14:30.264Z,11.70
2022-09-25T16:17:00.127Z,11.70
2022-09-25T16:19:30.224Z,11.70
2022-09-25T16:22:00.735Z,11.70
2022-09-25T16:24:29.824Z,11.70
2022-09-25T16:27:01.540Z,11.70
2022-09-25T16:29:30.364Z,11.70
2022-09-25T16:32:03.842Z,11.60
2022-09-25T16:34:36.094Z,11.60
2022-09-25T16:37:05.844Z,11.60
2022-09-25T16:39:36.716Z,11.60
2022-09-25T16:42:26.945Z,11.60
2022-09-25T16:45:14.970Z,11.60
2022-09-25T16:47:49.231Z,11.50
2022-09-25T16:50:19.430Z,11.50
2022-09-25T16:52:48.121Z,11.50
2022-09-25T16:55:23.472Z,11.50
2022-09-25T16:57:56.886Z,11.50
2022-09-25T17:00:26.689Z,11.40
2022-09-25T17:02:54.108Z,11.40
2022-09-25T17:05:27.590Z,11.40
2022-09-25T17:07:57.365Z,11.40
2022-09-25T17:10:29.630Z,11.40
2022-09-25T17:12:59.947Z,11.30
2022-09-25T17:15:33.821Z,11.30
2022-09-25T17:18:02.076Z,11.30
2022-09-25T17:20:33.924Z,11.30
2022-09-25T17:23:00.840Z,11.20
2022-09-25T17:25:45.701Z,11.20
2022-09-25T17:28:14.393Z,11.20
2022-09-25T17:30:42.169Z,11.20
2022-09-25T17:33:20.343Z,11.10
2022-09-25T17:35:52.835Z,11.10
2022-09-25T17:38:20.079Z,11.10
2022-09-25T17:40:48.755Z,11.00
2022-09-25T17:43:16.127Z,11.00
2022-09-25T17:45:55.643Z,11.00
2022-09-25T17:48:25.162Z,10.90
2022-09-25T17:51:04.453Z,10.90
2022-09-25T17:53:32.986Z,10.90
2022-09-25T17:56:01.883Z,10.90
2022-09-25T17:58:30.362Z,10.90
2022-09-25T18:00:59.556Z,10.90
2022-09-25T18:03:27.212Z,10.80
2022-09-25T18:05:55.200Z,10.80
2022-09-25T18:08:22.019Z,10.80
2022-09-25T18:10:51.842Z,10.80
2022-09-25T18:13:21.867Z,10.70
2022-09-25T18:15:53.204Z,10.70
2022-09-25T18:18:20.567Z,10.70
2022-09-25T18:21:09.395Z,10.70
2022-09-25T18:23:38.322Z,10.70
2022-09-25T18:26:08.147Z,10.70
2022-09-25T18:28:35.086Z,10.60
2022-09-25T18:31:02.009Z,10.60
2022-09-25T18:33:29.079Z,10.60
2022-09-25T18:35:55.824Z,10.60
2022-09-25T18:38:24.489Z,10.60
2022-09-25T18:40:51.611Z,10.60
2022-09-25T18:43:18.579Z,10.60
2022-09-25T18:45:52.191Z,10.60
2022-09-25T18:48:19.150Z,10.50
2022-09-25T18:50:47.537Z,10.50
2022-09-25T18:53:15.359Z,10.50
2022-09-25T18:55:43.687Z,10.50
2022-09-25T18:58:11.649Z,10.50
2022-09-25T19:00:39.846Z,10.50
2022-09-25T19:03:07.120Z,10.50
2022-09-25T19:05:34.111Z,10.50
2022-09-25T19:08:03.315Z,10.50
2022-09-25T19:10:33.254Z,10.50
2022-09-25T19:13:00.470Z,10.60
2022-09-25T19:15:28.665Z,10.60
2022-09-25T19:17:58.861Z,10.60
2022-09-25T19:20:25.889Z,10.60
2022-09-25T19:22:52.953Z,10.60
2022-09-25T19:25:22.753Z,10.60
2022-09-25T19:27:49.824Z,10.60
2022-09-25T19:30:16.671Z,10.60
2022-09-25T19:32:43.725Z,10.60
2022-09-25T19:35:11.268Z,10.60
2022-09-25T19:37:41.296Z,10.60
2022-09-25T19:40:27.436Z,10.60
2022-09-25T19:42:54.329Z,10.60
2022-09-25T19:45:21.125Z,10.60
2022-09-25T19:47:48.276Z,10.60
2022-09-25T19:50:15.276Z,10.60
2022-09-25T19:52:42.311Z,10.50
2022-09-25T19:55:09.264Z,10.50
2022-09-25T19:57:36.609Z,10.50
2022-09-25T20:00:05.294Z,10.50
2022-09-25T20:02:35.672Z,10.50
2022-09-25T20:05:02.472Z,10.50
2022-09-25T20:07:29.222Z,10.50
2022-09-25T20:09:56.156Z,10.50
2022-09-25T20:12:23.003Z,10.50
2022-09-25T20:14:49.895Z,10.40
2022-09-25T20:17:16.773Z,10.40
2022-09-25T20:19:43.452Z,10.40
2022-09-25T20:22:10.380Z,10.40
2022-09-25T20:24:37.188Z,10.40
2022-09-25T20:27:04.149Z,10.40
2022-09-25T20:29:30.928Z,10.30
2022-09-25T20:31:57.635Z,10.30
2022-09-25T20:34:24.461Z,10.30
2022-09-25T20:36:51.417Z,10.30
2022-09-25T20:39:21.400Z,10.30
2022-09-25T20:41:49.609Z,10.40
2022-09-25T20:44:16.748Z,10.30
2022-09-25T20:46:43.987Z,10.30
2022-09-25T20:49:11.110Z,10.30
2022-09-25T20:51:38.358Z,10.30
2022-09-25T20:54:07.420Z,10.30
2022-09-25T20:56:35.800Z,10.30
2022-09-25T20:59:05.096Z,10.30
2022-09-25T21:01:35.625Z,10.20
2022-09-25T21:04:04.891Z,10.20
2022-09-25T21:06:34.853Z,10.20
2022-09-25T21:09:05.882Z,10.30
2022-09-25T21:11:33.649Z,10.20
2022-09-25T21:14:02.703Z,10.20
2022-09-25T21:16:31.747Z,10.30
2022-09-25T21:19:01.665Z,10.30
2022-09-25T21:21:29.822Z,10.20
2022-09-25T21:23:57.989Z,10.30
2022-09-25T21:26:28.748Z,10.20
2022-09-25T21:28:57.344Z,10.30
2022-09-25T21:31:34.625Z,10.30
2022-09-25T21:34:02.159Z,10.20
2022-09-25T21:36:30.034Z,10.20
2022-09-25T21:38:58.406Z,10.20
2022-09-25T21:41:27.329Z,10.20
2022-09-25T21:44:00.002Z,10.20
2022-09-25T21:46:28.123Z,10.20
2022-09-25T21:49:01.743Z,10.20
2022-09-25T21:51:31.880Z,10.20
2022-09-25T21:54:01.002Z,10.20
2022-09-25T21:56:30.897Z,10.20
2022-09-25T21:58:58.546Z,10.10
2022-09-25T22:01:32.161Z,10.10
2022-09-25T22:03:59.407Z,10.10
2022-09-25T22:06:29.212Z,10.10
2022-09-25T22:08:59.137Z,10.10
2022-09-25T22:11:27.272Z,10.10
2022-09-25T22:13:57.328Z,10.00
2022-09-25T22:16:32.924Z,10.00
2022-09-25T22:19:01.159Z,10.00
2022-09-25T22:21:30.665Z,10.00
2022-09-25T22:23:58.011Z,9.90
2022-09-25T22:26:25.518Z,9.90
2022-09-25T22:28:52.725Z,9.90
2022-09-25T22:31:28.793Z,9.90
2022-09-25T22:33:58.807Z,9.90
2022-09-25T22:36:27.273Z,9.90
2022-09-25T22:38:55.088Z,9.90
2022-09-25T22:41:22.203Z,9.90
2022-09-25T22:43:53.688Z,9.90
2022-09-25T22:46:22.645Z,9.90
2022-09-25T22:48:49.982Z,9.90
2022-09-25T22:51:19.862Z,9.90
2022-09-25T22:53:48.068Z,9.90
2022-09-25T22:56:27.023Z,9.90
2022-09-25T22:59:02.035Z,9.80
2022-09-25T23:01:31.363Z,9.80
2022-09-25T23:04:00.787Z,9.80
2022-09-25T23:06:29.272Z,9.80
2022-09-25T23:08:59.456Z,9.80
2022-09-25T23:11:27.317Z,9.80
2022-09-25T23:14:00.136Z,9.80
2022-09-25T23:16:27.924Z,9.70
2022-09-25T23:18:58.370Z,9.70
2022-09-25T23:21:26.154Z,9.70
2022-09-25T23:24:03.227Z,9.70
2022-09-25T23:26:30.698Z,9.70
2022-09-25T23:28:58.871Z,9.70
2022-09-25T23:31:26.477Z,9.70
2022-09-25T23:33:53.417Z,9.70
2022-09-25T23:36:21.661Z,9.70
2022-09-25T23:38:50.387Z,9.70
2022-09-25T23:41:17.162Z,9.70
2022-09-25T23:43:45.255Z,9.70
2022-09-25T23:46:13.434Z,9.70
2022-09-25T23:48:40.484Z,9.70
2022-09-25T23:51:07.966Z,9.70
2022-09-25T23:53:34.984Z,9.70
2022-09-25T23:56:23.435Z,9.70
2022-09-25T23:58:50.670Z,9.70
